Time;durP1;ratioP1;P1;durP2;ratioP2;P2;SDS_P1;SDS_P2;PMS_P1;PMS_P2;Temp;Humidity;BMP_temperature;BMP_pressure;BME280_temperature;BME280_humidity;BME280_pressure;Samples;Min_cycle;Max_cycle;Signal;HPM_P1;HPM_P2
2023/10/09 14:12:13;;;;;;;12.52;5.07;;;30.00;1.00;;;;;;4804001;29;20100;-89
2023/10/09 14:15:05;;;;;;;14.25;5.88;;;30.90;1.00;;;;;;4952040;28;20073;-90
2023/10/09 14:18:18;;;;;;;13.98;5.35;;;31.10;1.00;;;;;;5024650;28;20044;-89
2023/10/09 14:21:16;;;;;;;17.70;6.07;;;31.10;1.00;;;;;;5085457;28;20102;-88
2023/10/09 14:24:26;;;;;;;;;;;;;;;;;;;;;
2023/10/09 14:27:25;;;;;;;15.20;6.07;;;29.80;1.00;;;;;;5082102;28;20101;-90
2023/10/09 14:30:44;;;;;;;18.25;6.05;;;28.40;1.00;;;;;;5088280;28;20179;-89
2023/10/09 14:33:53;;;;;;;;;;;;;;;;;;;;;
2023/10/09 14:37:00;;;;;;;14.98;5.55;;;27.80;1.00;;;;;;5087511;28;20049;-86
2023/10/09 14:44:05;;;;;;;17.45;6.05;;;27.10;1.00;;;;;;5074777;28;20052;-91
2023/10/09 14:47:46;;;;;;;17.27;5.68;;;26.80;1.00;;;;;;5090206;28;20517;-91
2023/10/09 14:55:55;;;;;;;17.75;6.18;;;25.90;1.00;;;;;;5033536;28;20033;-92
2023/10/09 15:04:10;;;;;;;;;;;;;;;;;;;;;
2023/10/09 15:16:03;;;;;;;26.70;6.45;;;26.60;1.00;;;;;;4833289;29;20075;-88
2023/10/09 15:28:10;;;;;;;31.20;6.63;;;25.00;1.00;;;;;;4855388;29;20049;-89
2023/10/09 15:43:14;;;;;;;;;;;;;;;;;;;;;
2023/10/09 15:46:37;;;;;;;;;;;;;;;;;;;;;
2023/10/09 15:49:46;;;;;;;28.58;6.40;;;23.00;1.00;;;;;;4943638;28;20047;-86
2023/10/09 15:52:53;;;;;;;33.13;6.45;;;22.80;1.00;;;;;;4985374;28;20153;-91
2023/10/09 15:55:45;;;;;;;27.52;6.22;;;22.70;1.00;;;;;;5001852;28;20070;-92
2023/10/09 15:58:35;;;;;;;34.67;6.30;;;22.50;1.00;;;;;;5000593;28;20046;-90
2023/10/09 16:01:23;;;;;;;24.17;6.07;;;22.40;1.00;;;;;;5040020;28;20052;-85
2023/10/09 16:04:10;;;;;;;27.13;6.82;;;22.20;1.00;;;;;;5085530;28;20050;-86
2023/10/09 16:07:01;;;;;;;20.92;5.60;;;22.10;1.00;;;;;;5078509;28;20055;-87
2023/10/09 16:09:51;;;;;;;28.10;5.97;;;22.00;1.00;;;;;;5082291;28;20467;-89
2023/10/09 16:12:42;;;;;;;21.45;6.57;;;21.90;1.00;;;;;;5078190;28;20105;-86
2023/10/09 16:15:29;;;;;;;29.23;7.50;;;21.80;1.00;;;;;;5080622;28;20107;-90
2023/10/09 16:18:49;;;;;;;;;;;;;;;;;;;;;
2023/10/09 16:22:03;;;;;;;25.90;6.38;;;21.60;1.00;;;;;;5081711;28;20044;-89
2023/10/09 16:24:55;;;;;;;23.63;6.65;;;21.40;1.00;;;;;;5073121;28;20100;-88
2023/10/09 16:27:46;;;;;;;26.75;6.05;;;21.30;1.00;;;;;;5076084;28;20040;-89
2023/10/09 16:30:35;;;;;;;22.20;6.03;;;21.20;1.00;;;;;;5080858;28;20040;-89
2023/10/09 16:33:25;;;;;;;30.23;6.93;;;21.10;1.00;;;;;;5073541;28;20146;-93
2023/10/09 16:36:14;;;;;;;30.73;7.00;;;21.00;1.00;;;;;;5064118;28;20064;-86
2023/10/09 16:39:04;;;;;;;24.92;6.50;;;20.90;1.00;;;;;;5066321;28;20094;-91
2023/10/09 16:41:57;;;;;;;29.83;6.45;;;20.80;1.00;;;;;;5081693;28;20136;-90
2023/10/09 16:44:46;;;;;;;27.15;6.15;;;20.70;1.00;;;;;;5076576;28;20041;-90
2023/10/09 16:47:36;;;;;;;24.00;6.10;;;20.60;1.00;;;;;;5073191;28;20048;-91
2023/10/09 16:50:27;;;;;;;33.60;7.03;;;20.40;1.00;;;;;;5057394;28;20056;-89
2023/10/09 16:53:16;;;;;;;28.35;7.07;;;20.30;1.00;;;;;;5071801;28;20052;-92
2023/10/09 16:56:14;;;;;;;34.65;6.90;;;20.20;1.00;;;;;;5055774;28;20118;-90
2023/10/09 16:59:03;;;;;;;20.23;6.13;;;20.00;1.00;;;;;;5078448;28;20067;-91
2023/10/09 17:01:53;;;;;;;24.00;6.45;;;19.90;1.00;;;;;;5078341;28;20047;-91
2023/10/09 17:04:44;;;;;;;28.95;6.65;;;19.90;1.00;;;;;;5052661;28;20096;-92
2023/10/09 17:07:34;;;;;;;25.95;6.53;;;19.80;1.00;;;;;;5073866;28;20041;-92
2023/10/09 17:10:25;;;;;;;27.67;6.80;;;19.60;1.00;;;;;;5069476;28;20051;-90
2023/10/09 17:13:14;;;;;;;28.23;6.75;;;19.60;1.00;;;;;;5078876;28;20048;-89
2023/10/09 17:16:16;;;;;;;23.45;6.80;;;19.40;1.00;;;;;;5065604;28;20101;-89
2023/10/09 17:19:05;;;;;;;26.63;6.93;;;19.10;1.00;;;;;;5067688;28;20052;-89
2023/10/09 17:21:56;;;;;;;24.38;6.32;;;18.90;1.00;;;;;;5068177;28;20045;-91
2023/10/09 17:24:46;;;;;;;30.83;7.18;;;18.60;1.00;;;;;;5088468;28;20052;-89
2023/10/09 17:27:34;;;;;;;34.67;7.45;;;18.40;1.00;;;;;;5084556;28;20049;-85
2023/10/09 17:30:22;;;;;;;28.98;6.15;;;18.40;1.00;;;;;;5078751;28;20041;-89
2023/10/09 17:33:09;;;;;;;22.98;6.22;;;18.50;1.00;;;;;;5064883;28;20044;-89
2023/10/09 17:36:00;;;;;;;29.40;7.32;;;18.50;1.00;;;;;;5085333;28;20052;-92
2023/10/09 17:38:51;;;;;;;26.20;6.43;;;18.50;1.00;;;;;;5065947;28;20036;-91
2023/10/09 17:41:39;;;;;;;28.98;6.97;;;18.40;1.00;;;;;;5079420;28;20033;-91
2023/10/09 17:44:31;;;;;;;21.08;5.93;;;18.30;1.00;;;;;;5075375;28;20056;-89
2023/10/09 17:47:21;;;;;;;28.00;6.65;;;18.00;1.00;;;;;;5082172;28;20045;-90
2023/10/09 17:50:12;;;;;;;25.83;6.97;;;17.80;1.00;;;;;;5058333;28;20048;-89
2023/10/09 17:53:01;;;;;;;22.67;6.53;;;17.70;1.00;;;;;;5074414;28;20044;-88
2023/10/09 17:55:55;;;;;;;37.65;7.00;;;17.60;1.00;;;;;;5073570;28;20123;-84
2023/10/09 17:58:49;;;;;;;26.83;6.13;;;17.50;1.00;;;;;;5058094;28;20049;-82
2023/10/09 18:01:39;;;;;;;28.52;6.28;;;17.50;1.00;;;;;;5080042;28;20044;-90
2023/10/09 18:04:27;;;;;;;24.17;7.07;;;17.50;1.00;;;;;;5088590;28;20056;-91
2023/10/09 18:07:18;;;;;;;23.17;6.72;;;17.50;1.00;;;;;;5065103;28;20041;-90
2023/10/09 18:10:09;;;;;;;25.65;7.05;;;17.50;1.00;;;;;;5084620;28;20049;-91
2023/10/09 18:12:57;;;;;;;31.33;7.40;;;17.50;1.00;;;;;;5073670;28;20074;-90
2023/10/09 18:15:46;;;;;;;20.88;5.40;;;17.50;1.00;;;;;;5082182;28;20099;-89
2023/10/09 18:18:35;;;;;;;26.70;6.22;;;17.50;1.00;;;;;;5076385;28;20058;-91
2023/10/09 18:21:24;;;;;;;29.05;6.32;;;17.40;1.00;;;;;;5048601;28;20326;-92
2023/10/09 18:24:14;;;;;;;22.20;7.10;;;17.50;1.00;;;;;;5077921;28;20349;-90
2023/10/09 18:27:02;;;;;;;30.30;7.97;;;17.50;1.00;;;;;;5081055;28;20046;-89
2023/10/09 18:29:50;;;;;;;32.72;6.95;;;17.60;1.00;;;;;;5080630;28;20044;-89
2023/10/09 18:32:44;;;;;;;32.17;6.70;;;17.60;1.00;;;;;;5078324;28;20056;-88
2023/10/09 18:35:37;;;;;;;24.95;6.43;;;17.60;1.00;;;;;;5077814;28;20135;-91
2023/10/09 18:38:25;;;;;;;25.08;6.40;;;17.60;1.00;;;;;;5081045;28;20048;-87
2023/10/09 18:41:13;;;;;;;21.75;6.07;;;17.50;1.00;;;;;;5060574;28;20064;-91
2023/10/09 18:44:09;;;;;;;30.70;6.95;;;17.50;1.00;;;;;;5074503;28;20036;-91
2023/10/09 18:46:59;;;;;;;33.47;7.47;;;17.40;1.00;;;;;;5080504;28;20040;-89
2023/10/09 18:49:50;;;;;;;23.73;6.68;;;17.50;1.00;;;;;;5073588;28;20472;-89
2023/10/09 18:52:45;;;;;;;27.52;7.07;;;17.60;1.00;;;;;;5063889;28;20440;-91
2023/10/09 18:55:36;;;;;;;22.42;6.13;;;17.80;1.00;;;;;;5088119;28;20186;-85
2023/10/09 18:58:24;;;;;;;21.45;6.40;;;17.90;1.00;;;;;;5061627;28;20056;-91
2023/10/09 19:01:15;;;;;;;23.27;6.45;;;18.10;1.00;;;;;;5064311;28;20145;-90
2023/10/09 19:04:08;;;;;;;29.65;7.13;;;18.10;1.00;;;;;;5078178;28;20040;-91
2023/10/09 19:06:57;;;;;;;24.48;6.57;;;18.20;1.00;;;;;;5070016;28;20174;-87
2023/10/09 19:09:45;;;;;;;32.03;6.45;;;18.30;1.00;;;;;;5076051;28;20715;-87
2023/10/09 19:12:40;;;;;;;24.98;6.57;;;18.40;1.00;;;;;;5066208;28;20044;-83
2023/10/09 19:15:28;;;;;;;29.15;5.63;;;18.40;1.00;;;;;;5069340;28;20079;-88
2023/10/09 19:18:16;;;;;;;28.33;6.07;;;18.40;1.00;;;;;;5087233;28;20048;-85
2023/10/09 19:21:08;;;;;;;29.65;6.75;;;18.30;1.00;;;;;;5070482;28;20041;-90
2023/10/09 19:23:55;;;;;;;27.60;6.18;;;18.20;1.00;;;;;;5082779;28;20062;-86
2023/10/09 19:26:43;;;;;;;27.05;6.05;;;18.10;1.00;;;;;;5083214;28;20063;-81
2023/10/09 19:29:31;;;;;;;34.15;6.07;;;17.90;1.00;;;;;;5097665;28;20052;-83
2023/10/09 19:32:20;;;;;;;17.75;5.75;;;17.80;1.00;;;;;;5092179;28;20039;-84
2023/10/09 19:35:11;;;;;;;25.52;6.78;;;17.80;1.00;;;;;;5091403;28;20047;-82
2023/10/09 19:38:00;;;;;;;26.92;6.55;;;17.90;1.00;;;;;;5089322;28;20037;-91
2023/10/09 19:40:52;;;;;;;24.73;6.13;;;17.90;1.00;;;;;;5071817;28;20133;-90
2023/10/09 19:43:39;;;;;;;23.67;5.50;;;17.90;1.00;;;;;;5077908;28;20041;-90
2023/10/09 19:46:27;;;;;;;13.23;4.53;;;17.90;1.00;;;;;;5080009;28;20032;-92
2023/10/09 19:49:18;;;;;;;32.25;6.28;;;17.90;1.00;;;;;;5080231;28;20058;-91
2023/10/09 19:52:08;;;;;;;26.10;6.22;;;17.80;1.00;;;;;;5094851;28;20075;-94
2023/10/09 19:54:56;;;;;;;23.48;5.35;;;17.80;1.00;;;;;;5080892;28;20055;-90
2023/10/09 19:57:43;;;;;;;29.27;6.25;;;17.70;1.00;;;;;;5091833;28;20044;-91
2023/10/09 20:00:31;;;;;;;24.15;6.10;;;17.70;1.00;;;;;;5055105;28;20147;-87
2023/10/09 20:03:21;;;;;;;24.52;6.13;;;17.70;1.00;;;;;;5081310;28;20131;-91
2023/10/09 20:06:09;;;;;;;25.50;5.32;;;17.70;1.00;;;;;;5076874;28;20052;-88
2023/10/09 20:08:57;;;;;;;33.00;6.00;;;17.80;1.00;;;;;;5071389;28;20119;-87
2023/10/09 20:11:47;;;;;;;22.10;5.38;;;17.80;1.00;;;;;;5074523;28;20139;-93
2023/10/09 20:14:37;;;;;;;24.98;6.10;;;17.70;1.00;;;;;;5085700;28;20055;-87
2023/10/09 20:17:28;;;;;;;22.50;6.25;;;17.60;1.00;;;;;;5070966;28;20050;-89
2023/10/09 20:20:22;;;;;;;25.50;5.63;;;17.60;1.00;;;;;;5053290;28;20182;-86
2023/10/09 20:23:16;;;;;;;21.15;5.18;;;17.50;1.00;;;;;;5065269;28;20052;-86
2023/10/09 20:26:07;;;;;;;30.20;5.75;;;17.40;1.00;;;;;;5075675;28;20134;-86
2023/10/09 20:28:55;;;;;;;35.53;8.00;;;17.30;1.00;;;;;;5075490;28;20044;-87
2023/10/09 20:31:47;;;;;;;20.10;5.93;;;17.10;1.00;;;;;;5043839;28;20138;-86
2023/10/09 20:34:36;;;;;;;27.15;7.07;;;16.90;1.00;;;;;;5054777;28;20178;-87
2023/10/09 20:37:24;;;;;;;25.30;6.90;;;16.70;1.00;;;;;;5076988;28;20044;-86
2023/10/09 20:40:22;;;;;;;24.48;6.53;;;16.50;1.00;;;;;;5075674;28;20474;-85
2023/10/09 20:43:09;;;;;;;30.88;6.10;;;16.30;1.00;;;;;;5066402;28;20131;-86
2023/10/09 20:45:58;;;;;;;18.80;5.90;;;16.00;1.00;;;;;;5063700;28;20048;-85
2023/10/09 20:48:49;;;;;;;25.33;6.20;;;15.90;5.90;;;;;;5045123;28;20060;-88
2023/10/09 20:51:38;;;;;;;26.58;6.35;;;15.70;19.60;;;;;;5059782;28;20063;-87
2023/10/09 20:54:45;;;;;;;23.85;5.75;;;15.70;28.30;;;;;;5070855;28;20151;-84
2023/10/09 20:57:32;;;;;;;20.90;6.18;;;15.80;29.30;;;;;;5076544;28;20049;-85
2023/10/09 21:00:20;;;;;;;23.83;6.30;;;15.80;29.40;;;;;;5043500;28;20076;-87
2023/10/09 21:03:10;;;;;;;20.08;6.25;;;15.70;34.60;;;;;;5058590;28;20063;-87
2023/10/09 21:06:01;;;;;;;18.02;4.95;;;15.60;44.60;;;;;;5068392;28;20167;-86
2023/10/09 21:08:51;;;;;;;22.95;5.82;;;15.50;52.20;;;;;;5062690;28;20190;-88
2023/10/09 21:11:38;;;;;;;24.63;5.65;;;15.50;65.80;;;;;;5051960;28;20077;-89
2023/10/09 21:14:28;;;;;;;22.65;5.75;;;15.50;81.60;;;;;;5049341;28;20048;-88
2023/10/09 21:17:17;;;;;;;27.80;5.88;;;15.40;90.70;;;;;;5060837;28;20093;-89
2023/10/09 21:20:09;;;;;;;19.88;4.90;;;15.40;98.20;;;;;;5060586;28;20137;-87
2023/10/09 21:22:59;;;;;;;17.77;5.68;;;15.50;97.10;;;;;;5075312;28;20059;-86
2023/10/09 21:25:51;;;;;;;27.02;5.35;;;15.50;99.40;;;;;;5074119;28;20044;-87
2023/10/09 21:28:39;;;;;;;27.38;5.28;;;15.50;99.90;;;;;;5053797;28;20040;-89
2023/10/09 21:31:27;;;;;;;20.50;5.68;;;15.50;99.90;;;;;;5051241;28;20067;-88
2023/10/09 21:34:15;;;;;;;21.92;6.40;;;15.40;99.90;;;;;;5072296;28;20059;-87
2023/10/09 21:37:02;;;;;;;16.05;5.03;;;15.40;99.90;;;;;;5069480;28;20041;-87
2023/10/09 21:39:56;;;;;;;18.27;6.25;;;15.30;99.90;;;;;;5067654;28;20248;-88
2023/10/09 21:42:46;;;;;;;21.85;5.05;;;15.30;99.90;;;;;;5072640;28;20076;-86
2023/10/09 21:45:44;;;;;;;25.23;5.63;;;15.20;99.90;;;;;;5061886;28;20070;-86
2023/10/09 21:48:32;;;;;;;25.60;5.43;;;15.00;99.90;;;;;;5063746;28;20044;-85
2023/10/09 21:51:25;;;;;;;18.67;5.25;;;15.00;99.90;;;;;;5074020;28;20049;-86
2023/10/09 21:54:12;;;;;;;17.45;5.90;;;14.90;99.90;;;;;;5081089;28;20372;-86
2023/10/09 21:57:00;;;;;;;18.55;5.28;;;14.90;99.90;;;;;;5073621;28;20063;-87
2023/10/09 21:59:49;;;;;;;23.05;4.70;;;14.80;99.90;;;;;;5074317;28;20466;-87
2023/10/09 22:02:37;;;;;;;24.05;5.60;;;14.80;99.90;;;;;;5076739;28;20044;-87
2023/10/09 22:05:26;;;;;;;22.95;5.15;;;14.80;99.90;;;;;;5059748;28;20101;-87
2023/10/09 22:08:16;;;;;;;21.00;5.50;;;14.80;99.90;;;;;;5053547;28;20041;-87
2023/10/09 22:11:07;;;;;;;26.15;5.68;;;14.80;99.90;;;;;;5046051;28;20056;-88
2023/10/09 22:13:55;;;;;;;22.17;4.72;;;14.80;99.90;;;;;;5061960;28;20099;-88
2023/10/09 22:16:45;;;;;;;23.95;5.95;;;14.70;99.90;;;;;;5063343;28;20437;-88
2023/10/09 22:19:36;;;;;;;27.75;6.00;;;14.70;99.90;;;;;;5077239;28;20118;-88
2023/10/09 22:22:26;;;;;;;25.52;6.25;;;14.90;99.90;;;;;;5078495;28;20824;-86
2023/10/09 22:25:14;;;;;;;26.48;5.43;;;15.00;99.90;;;;;;5067311;28;20032;-88
2023/10/09 22:28:09;;;;;;;23.63;6.22;;;15.10;99.90;;;;;;5069220;28;20360;-86
2023/10/09 22:31:03;;;;;;;24.65;4.70;;;15.10;99.90;;;;;;5074800;28;20037;-87
2023/10/09 22:33:53;;;;;;;24.50;5.82;;;15.10;99.90;;;;;;5052182;28;20041;-86
2023/10/09 22:36:47;;;;;;;17.02;5.53;;;15.20;99.90;;;;;;5045438;28;20045;-88
2023/10/09 22:39:46;;;;;;;23.08;5.70;;;15.10;99.90;;;;;;5080175;28;20127;-86
2023/10/09 22:42:37;;;;;;;18.65;5.15;;;15.00;99.90;;;;;;5075855;28;20129;-87
2023/10/09 22:45:34;;;;;;;25.80;6.00;;;14.90;99.90;;;;;;5076692;28;20041;-87
2023/10/09 22:48:27;;;;;;;26.52;6.00;;;14.80;99.90;;;;;;5057272;28;20755;-87
2023/10/09 22:51:23;;;;;;;21.58;5.50;;;14.70;99.90;;;;;;5074819;28;20051;-89
2023/10/09 22:54:12;;;;;;;22.08;5.45;;;14.60;99.90;;;;;;5062114;28;20123;-87
2023/10/09 22:57:00;;;;;;;21.88;5.85;;;14.60;99.90;;;;;;5064266;28;20052;-86
2023/10/09 22:59:59;;;;;;;24.25;5.20;;;14.70;99.90;;;;;;5080006;28;20051;-87
2023/10/09 23:02:56;;;;;;;23.33;5.70;;;14.80;99.90;;;;;;5071067;28;20149;-87
2023/10/09 23:05:46;;;;;;;25.90;5.72;;;14.80;99.90;;;;;;5076180;28;20048;-87
2023/10/09 23:08:34;;;;;;;26.70;5.70;;;14.80;99.90;;;;;;5048514;28;20041;-88
2023/10/09 23:11:25;;;;;;;21.42;6.00;;;14.90;99.90;;;;;;5060031;28;20041;-87
2023/10/09 23:14:18;;;;;;;25.80;5.25;;;14.90;99.90;;;;;;5056458;28;20543;-86
2023/10/09 23:17:06;;;;;;;19.08;5.47;;;15.00;99.90;;;;;;5060060;28;20432;-88
2023/10/09 23:19:59;;;;;;;26.45;5.18;;;15.00;99.90;;;;;;5052675;28;20041;-88
2023/10/09 23:22:52;;;;;;;20.13;4.88;;;15.00;99.90;;;;;;5046969;28;20360;-86
2023/10/09 23:25:49;;;;;;;24.38;6.05;;;14.90;99.90;;;;;;5054734;28;20045;-87
2023/10/09 23:28:50;;;;;;;29.25;6.03;;;14.80;99.90;;;;;;5060411;28;20040;-88
2023/10/09 23:31:47;;;;;;;21.83;5.30;;;14.80;99.90;;;;;;5051331;28;20122;-88
2023/10/09 23:34:34;;;;;;;24.63;5.75;;;14.70;99.90;;;;;;5076136;28;20041;-89
2023/10/09 23:40:44;;;;;;;21.17;6.28;;;14.50;99.90;;;;;;5050617;28;20059;-88
2023/10/09 23:43:45;;;;;;;25.38;6.32;;;14.30;99.90;;;;;;5070629;28;20044;-87
2023/10/09 23:46:39;;;;;;;23.45;5.82;;;14.30;99.90;;;;;;5068641;28;20052;-87
2023/10/09 23:49:30;;;;;;;27.52;5.93;;;14.10;99.90;;;;;;5056575;28;20056;-88
2023/10/09 23:52:23;;;;;;;22.73;5.93;;;13.90;99.90;;;;;;5050681;28;20056;-88
2023/10/09 23:55:14;;;;;;;25.33;5.97;;;13.80;1.00;;;;;;5063367;28;20049;-87
2023/10/09 23:58:16;;;;;;;21.90;6.95;;;13.60;1.00;;;;;;5074137;28;20044;-86
